PAHP Airport Information

Runway Information
Runway 13 Length 3300 ft width 75 ft
Elevation 4 ft Threshold 0 ft Heading 149
Runway 31 Length 3300 ft Width 75 ft
Elevation 4 ft Threshold 0 ft Heading 329
Airport Frequencies
Type AWOS Name AWOS 3 Frequency 135.1 MHZ
Type CTAF Name CTAF Frequency 123 MHZ
Type FSS Name KENAI RDO Frequency 122.4 MHZ
Type MISC Name TWEB Frequency 115.2 MHZ
Airport Navaids
Type VOR-DME Name Hooper Bay Frequency 115200 KHZ
Airport Weather Information & NOTAM
ADDS - METARS form results

(0506 UTC 15 November 2018)
Data provider http://aviationweather.gov/metar/data/
 
METAR text: PAHP 150456Z AUTO 09015KT 5SM -SN BR FEW009 OVC020 M06/M08 A2995 RMK AO2 SLP180 P0000 T10611078 FZRANO
Conditions at: PAHP (HOOPER BAY , AK, US) observed 0456 UTC 15 November 2018
Temperature: -6.1°C (21°F)
Dewpoint: -7.8°C (18°F) [RH = 88%]
Pressure (altimeter): 29.95 inches Hg (1014.3 mb)
[Sea-level pressure: 1018.0 mb]
Winds: from the E (90 degrees) at 17 MPH (15 knots; 7.7 m/s)
Visibility: 5 miles ( 8 km)
Ceiling: 2000 feet AGL
Clouds: few clouds at 900 feet AGL
overcast cloud deck at 2000 feet AGL
Weather: -SN BR  (light snow, mist)

METAR text: PAHP 150428Z AUTO 09015KT 6SM -SN BR SCT009 OVC014 M07/M08 A2994 RMK AO2 P0000 FZRANO
Conditions at: PAHP (HOOPER BAY , AK, US) observed 0428 UTC 15 November 2018
Temperature: -7.0°C (19°F)
Dewpoint: -8.0°C (18°F) [RH = 93%]
Pressure (altimeter): 29.94 inches Hg (1014.0 mb)
Winds: from the E (90 degrees) at 17 MPH (15 knots; 7.7 m/s)
Visibility: 6 miles (10 km)
Ceiling: 1400 feet AGL
Clouds: scattered clouds at 900 feet AGL
overcast cloud deck at 1400 feet AGL
Weather: -SN BR  (light snow, mist)